SBOSBO DBV / LDDU
Speedbird OnlineSpeedbird Online DBV / LDDU

Dubrovnik Airport
08:23 15°C

Location Dubrovnik, Croatia
Latitude: 42.5614013671875
Longitude: 18.268199920654297
Web Wikipedia
Altitude 161 Meter / 527 Feet
Distance 1,690 KM / 1,050 Miles
from London.
Time Zone UTC +2 hours (Europe/Zagreb)
Codes IATA: DBV
ICAO: LDDU
Currency £1 equals HRK 8.62
Runways
RunwayLength (m)Surface
113300Asphalt
293300Asphalt
Radio
TypeDescriptionFrequency
APPAPP123.6
TWRTWR129.5
Live ATC
METAR LDDU 060600Z 07006KT CAVOK 15/05 Q1026 NOSIG
TAF TAF LDDU 060525Z 0606/0706 08006KT CAVOK TX21/0613Z TN15/0606Z BECMG 0610/0612 28008KT BECMG 0617/0619 33005KT BECMG 0621/0623 02012KT
Weather As Of 06 Oct 2022 08:23
Description Clear sky
Wind 11 km/h from East (70°)
Cloud Cover 0%
Precipitation Rain: none, Snow: none
Sunrise 06:49
Sunset 18:20
Lounges Airport Business Lounge , International Departures
Rotations During the last 90 days there were
69 flights from LHR
69 flights from LGW
1 flights from ZAG
71 flights to LGW
68 flights to LHR


© 2017-2022 Speedbird Online